Time;durP1;ratioP1;P1;durP2;ratioP2;P2;SDS_P1;SDS_P2;PMS_P1;PMS_P2;Temp;Humidity;BMP_temperature;BMP_pressure;BME280_temperature;BME280_humidity;BME280_pressure;Samples;Min_cycle;Max_cycle;Signal;HPM_P1;HPM_P2
2022/11/01 00:00:52;;;;;;;10.20;5.57;;;;;;;;;;5026604;28;20185;-73
2022/11/01 00:03:17;;;;;;;7.10;5.07;;;;;;;;;;5023544;28;20194;-73
2022/11/01 00:05:44;;;;;;;8.52;5.13;;;;;;;;;;5032784;28;20207;-73
2022/11/01 00:08:09;;;;;;;9.10;5.85;;;;;;;;;;5026196;28;20202;-73
2022/11/01 00:10:34;;;;;;;16.05;6.72;;;;;;;;;;5028880;28;20649;-73
2022/11/01 00:12:59;;;;;;;12.77;6.43;;;;;;;;;;5028858;28;20184;-73
2022/11/01 00:15:24;;;;;;;13.88;6.38;;;;;;;;;;5017309;28;20262;-73
2022/11/01 00:17:50;;;;;;;9.73;5.88;;;;;;;;;;5022448;28;20202;-73
2022/11/01 00:20:15;;;;;;;13.60;4.88;;;;;;;;;;5022068;28;20708;-73
2022/11/01 00:22:40;;;;;;;13.98;6.65;;;;;;;;;;5038828;28;20214;-73
2022/11/01 00:25:06;;;;;;;11.85;6.00;;;;;;;;;;5031078;28;20253;-73
2022/11/01 00:27:31;;;;;;;12.63;6.22;;;;;;;;;;5030701;28;20186;-73
2022/11/01 00:29:56;;;;;;;12.15;5.60;;;;;;;;;;5027359;28;20629;-73
2022/11/01 00:32:21;;;;;;;7.88;4.95;;;;;;;;;;5028182;28;20183;-74
2022/11/01 00:34:47;;;;;;;9.52;5.63;;;;;;;;;;5026375;28;20190;-73
2022/11/01 00:37:12;;;;;;;9.60;5.53;;;;;;;;;;5027445;28;20182;-73
2022/11/01 00:39:37;;;;;;;10.32;6.07;;;;;;;;;;5025362;28;20198;-73
2022/11/01 00:42:02;;;;;;;10.65;6.00;;;;;;;;;;5026939;28;20193;-73
2022/11/01 00:44:27;;;;;;;7.18;5.43;;;;;;;;;;5028265;28;20183;-75
2022/11/01 00:46:53;;;;;;;10.60;5.32;;;;;;;;;;5022632;28;20563;-73
2022/11/01 00:49:18;;;;;;;9.65;5.97;;;;;;;;;;5022106;28;20222;-73
2022/11/01 00:51:43;;;;;;;13.82;6.50;;;;;;;;;;5017822;28;20175;-72
2022/11/01 00:54:08;;;;;;;10.23;5.68;;;;;;;;;;5014865;28;20178;-72
2022/11/01 00:56:33;;;;;;;11.93;5.65;;;;;;;;;;5026496;28;20178;-73
2022/11/01 00:58:59;;;;;;;7.68;4.97;;;;;;;;;;5026746;28;20338;-74
2022/11/01 01:01:24;;;;;;;11.40;7.53;;;;;;;;;;5027915;28;20289;-74
2022/11/01 01:03:49;;;;;;;10.85;5.60;;;;;;;;;;5032432;28;20256;-74
2022/11/01 01:06:14;;;;;;;9.52;5.53;;;;;;;;;;5033190;28;20206;-73
2022/11/01 01:08:39;;;;;;;15.68;7.00;;;;;;;;;;5030847;28;20194;-73
2022/11/01 01:11:05;;;;;;;8.75;5.32;;;;;;;;;;5036328;28;20176;-73
2022/11/01 01:13:30;;;;;;;9.50;5.15;;;;;;;;;;5025840;28;20175;-73
2022/11/01 01:15:56;;;;;;;8.60;5.55;;;;;;;;;;5036699;28;20597;-71
2022/11/01 01:18:21;;;;;;;13.05;6.20;;;;;;;;;;5025065;28;20242;-72
2022/11/01 01:20:46;;;;;;;12.15;5.20;;;;;;;;;;5027716;28;20233;-74
2022/11/01 01:23:11;;;;;;;11.32;5.90;;;;;;;;;;5030721;28;20225;-74
2022/11/01 01:25:38;;;;;;;9.93;5.00;;;;;;;;;;5022900;28;20258;-73
2022/11/01 01:28:03;;;;;;;11.38;5.30;;;;;;;;;;5033468;28;20653;-73
2022/11/01 01:30:28;;;;;;;11.20;6.55;;;;;;;;;;5028155;28;20244;-74
2022/11/01 01:32:53;;;;;;;12.35;5.35;;;;;;;;;;5032734;28;20175;-74
2022/11/01 01:35:18;;;;;;;9.00;5.47;;;;;;;;;;5028529;28;20185;-73
2022/11/01 01:37:44;;;;;;;8.32;5.20;;;;;;;;;;5030168;28;20843;-73
2022/11/01 01:40:09;;;;;;;7.40;5.40;;;;;;;;;;5027769;28;20202;-73
2022/11/01 01:42:36;;;;;;;16.17;5.82;;;;;;;;;;5019252;28;20214;-73
2022/11/01 01:45:04;;;;;;;9.48;5.10;;;;;;;;;;5025822;28;20264;-73
2022/11/01 01:47:34;;;;;;;10.07;5.03;;;;;;;;;;5021692;28;20217;-74
2022/11/01 01:50:05;;;;;;;9.00;5.03;;;;;;;;;;5025390;28;20225;-73
2022/11/01 01:52:31;;;;;;;7.75;4.75;;;;;;;;;;5031022;28;20464;-73
2022/11/01 01:54:58;;;;;;;6.47;5.00;;;;;;;;;;5030286;28;20205;-73
2022/11/01 01:57:23;;;;;;;6.55;4.35;;;;;;;;;;5029146;28;20562;-73
2022/11/01 01:59:48;;;;;;;7.55;3.90;;;;;;;;;;5028393;28;20796;-73
2022/11/01 02:02:14;;;;;;;9.27;5.05;;;;;;;;;;5022400;28;20206;-73
2022/11/01 02:04:42;;;;;;;8.95;5.13;;;;;;;;;;5023739;28;20170;-72
2022/11/01 02:07:07;;;;;;;8.13;4.72;;;;;;;;;;5026165;28;20258;-73
2022/11/01 02:09:34;;;;;;;6.88;3.85;;;;;;;;;;5022369;28;20292;-73
2022/11/01 02:11:59;;;;;;;10.30;4.55;;;;;;;;;;5028531;28;20270;-73
2022/11/01 02:14:24;;;;;;;6.20;4.05;;;;;;;;;;5030277;28;20186;-73
2022/11/01 02:17:00;;;;;;;8.70;4.28;;;;;;;;;;5030989;28;20243;-71
2022/11/01 02:19:44;;;;;;;8.43;4.60;;;;;;;;;;5024685;28;20205;-73
2022/11/01 02:22:09;;;;;;;12.30;5.35;;;;;;;;;;5026870;28;20198;-73
2022/11/01 02:24:44;;;;;;;6.87;4.27;;;;;;;;;;5030172;28;20251;-70
2022/11/01 02:27:27;;;;;;;11.52;4.53;;;;;;;;;;5024183;28;20483;-73
2022/11/01 02:29:55;;;;;;;7.70;4.78;;;;;;;;;;5020629;28;20244;-73
2022/11/01 02:32:26;;;;;;;14.38;5.05;;;;;;;;;;5030453;28;20178;-74
2022/11/01 02:35:10;;;;;;;10.15;4.55;;;;;;;;;;5020588;28;20174;-73
2022/11/01 02:37:49;;;;;;;5.63;3.72;;;;;;;;;;5023671;28;20257;-73
2022/11/01 02:40:21;;;;;;;6.05;4.47;;;;;;;;;;5028248;28;20239;-73
2022/11/01 02:42:48;;;;;;;6.38;4.43;;;;;;;;;;5031893;28;20707;-72
2022/11/01 02:45:34;;;;;;;8.27;4.07;;;;;;;;;;5031500;28;20571;-72
2022/11/01 02:48:00;;;;;;;6.65;4.03;;;;;;;;;;5020426;28;20222;-73
2022/11/01 02:50:27;;;;;;;4.75;3.67;;;;;;;;;;5029481;28;20659;-72
2022/11/01 02:52:53;;;;;;;6.18;4.25;;;;;;;;;;5022214;28;20229;-73
2022/11/01 02:55:34;;;;;;;8.13;4.43;;;;;;;;;;5024826;28;20213;-72
2022/11/01 02:58:00;;;;;;;8.68;4.18;;;;;;;;;;5029141;28;20689;-72
2022/11/01 03:00:29;;;;;;;8.27;4.65;;;;;;;;;;5023821;28;20292;-72
2022/11/01 03:03:04;;;;;;;7.75;4.25;;;;;;;;;;5029861;28;20241;-73
2022/11/01 03:05:38;;;;;;;6.60;4.03;;;;;;;;;;5020687;28;20204;-72
2022/11/01 03:08:08;;;;;;;6.03;3.75;;;;;;;;;;5023500;28;20213;-72
2022/11/01 03:10:42;;;;;;;6.18;3.22;;;;;;;;;;5024646;28;20273;-72
2022/11/01 03:13:20;;;;;;;3.65;2.70;;;;;;;;;;5014194;28;20667;-71
2022/11/01 03:15:51;;;;;;;6.13;2.97;;;;;;;;;;5022972;28;20217;-73
2022/11/01 03:18:43;;;;;;;7.35;2.60;;;;;;;;;;5029752;28;20177;-71
2022/11/01 03:21:16;;;;;;;5.55;2.45;;;;;;;;;;5019965;28;20186;-72
2022/11/01 03:23:49;;;;;;;4.05;1.95;;;;;;;;;;5022926;28;20175;-72
2022/11/01 03:26:16;;;;;;;6.35;2.03;;;;;;;;;;5026985;28;20544;-72
2022/11/01 03:28:44;;;;;;;3.97;1.85;;;;;;;;;;5018320;28;20271;-71
2022/11/01 03:31:19;;;;;;;2.67;1.98;;;;;;;;;;5027138;28;20170;-73
2022/11/01 03:33:47;;;;;;;4.63;2.08;;;;;;;;;;5022200;28;20180;-72
2022/11/01 03:36:14;;;;;;;8.60;2.33;;;;;;;;;;5024799;28;20185;-72
2022/11/01 03:38:41;;;;;;;2.63;1.55;;;;;;;;;;5022506;28;20241;-73
2022/11/01 03:41:10;;;;;;;4.35;2.00;;;;;;;;;;5027060;28;20178;-71
2022/11/01 03:43:35;;;;;;;2.38;1.50;;;;;;;;;;5022841;28;20218;-73
2022/11/01 03:46:00;;;;;;;2.13;1.38;;;;;;;;;;5028637;28;20198;-72
2022/11/01 03:48:26;;;;;;;3.58;1.02;;;;;;;;;;5024164;28;20174;-73
2022/11/01 03:50:52;;;;;;;0.77;0.70;;;;;;;;;;5022953;28;20759;-72
2022/11/01 03:53:17;;;;;;;2.15;0.70;;;;;;;;;;5025203;28;20182;-72
2022/11/01 03:55:43;;;;;;;1.45;0.73;;;;;;;;;;5024688;28;20228;-72
2022/11/01 03:58:08;;;;;;;2.30;1.02;;;;;;;;;;5028815;28;20277;-71
2022/11/01 04:00:36;;;;;;;2.42;0.75;;;;;;;;;;5025239;28;20212;-72
2022/11/01 04:03:02;;;;;;;2.65;0.60;;;;;;;;;;5029654;28;20285;-72
2022/11/01 04:05:28;;;;;;;2.58;0.70;;;;;;;;;;5026793;28;20250;-72
2022/11/01 04:07:53;;;;;;;2.47;0.70;;;;;;;;;;5017805;28;20181;-72
2022/11/01 04:10:20;;;;;;;3.08;0.90;;;;;;;;;;5026407;28;20670;-72
2022/11/01 04:12:46;;;;;;;2.30;0.80;;;;;;;;;;5027616;28;20190;-72
2022/11/01 04:20:45;;;;;;;2.05;0.93;;;;;;;;;;5029483;28;20573;-72
2022/11/01 04:23:10;;;;;;;4.78;1.30;;;;;;;;;;5030211;28;20202;-73
2022/11/01 04:25:35;;;;;;;1.65;0.68;;;;;;;;;;5029513;28;20178;-73
2022/11/01 04:28:01;;;;;;;3.38;0.60;;;;;;;;;;5028869;28;20182;-72
2022/11/01 04:30:27;;;;;;;2.50;0.85;;;;;;;;;;5028701;28;20209;-72
2022/11/01 04:32:52;;;;;;;2.58;0.88;;;;;;;;;;5033253;28;20723;-72
2022/11/01 04:35:17;;;;;;;3.95;1.20;;;;;;;;;;5031756;28;20183;-71
2022/11/01 04:37:43;;;;;;;7.03;2.40;;;;;;;;;;5031142;28;20183;-72
2022/11/01 04:40:08;;;;;;;3.15;1.05;;;;;;;;;;5032772;28;20210;-72
2022/11/01 04:42:34;;;;;;;5.38;1.00;;;;;;;;;;5032144;28;20205;-73
2022/11/01 04:44:59;;;;;;;2.42;0.80;;;;;;;;;;5030122;28;20175;-72
2022/11/01 04:47:24;;;;;;;2.47;1.00;;;;;;;;;;5034119;28;20190;-73
2022/11/01 04:49:50;;;;;;;2.58;0.80;;;;;;;;;;5033127;28;20592;-72
2022/11/01 04:52:15;;;;;;;4.70;0.90;;;;;;;;;;5027606;28;20659;-73
2022/11/01 04:54:40;;;;;;;2.72;0.38;;;;;;;;;;5026557;28;20663;-73
2022/11/01 04:57:05;;;;;;;5.18;1.08;;;;;;;;;;5028437;28;20193;-71
2022/11/01 04:59:30;;;;;;;2.55;0.90;;;;;;;;;;5043314;28;20199;-73
2022/11/01 05:01:56;;;;;;;4.43;0.80;;;;;;;;;;5028336;28;20281;-71
2022/11/01 05:04:21;;;;;;;3.92;1.08;;;;;;;;;;5032915;28;20544;-71
2022/11/01 05:06:46;;;;;;;5.53;0.95;;;;;;;;;;5029515;28;20209;-71
2022/11/01 05:09:11;;;;;;;5.95;1.05;;;;;;;;;;5025373;28;20698;-71
2022/11/01 05:11:36;;;;;;;3.78;0.80;;;;;;;;;;5031032;28;20189;-71
2022/11/01 05:14:01;;;;;;;2.55;0.60;;;;;;;;;;5032065;28;20268;-73
2022/11/01 05:16:27;;;;;;;3.95;1.02;;;;;;;;;;5031903;28;20193;-73
2022/11/01 05:18:52;;;;;;;6.13;1.17;;;;;;;;;;5027812;28;20248;-73
2022/11/01 05:21:17;;;;;;;15.05;2.65;;;;;;;;;;5032864;28;20205;-72
2022/11/01 05:23:42;;;;;;;7.07;2.17;;;;;;;;;;5025449;28;20179;-72
2022/11/01 05:26:07;;;;;;;3.13;1.50;;;;;;;;;;5024136;28;20257;-73
2022/11/01 05:28:33;;;;;;;5.07;1.02;;;;;;;;;;5027251;28;20230;-70
2022/11/01 05:30:58;;;;;;;9.15;2.35;;;;;;;;;;5038620;28;20368;-72
2022/11/01 05:33:24;;;;;;;2.83;0.93;;;;;;;;;;5027606;28;20197;-73
2022/11/01 05:35:49;;;;;;;12.52;2.05;;;;;;;;;;5028085;28;20261;-72
2022/11/01 05:38:14;;;;;;;8.18;1.33;;;;;;;;;;5029078;28;20292;-72
2022/11/01 05:40:39;;;;;;;5.47;1.00;;;;;;;;;;5029233;28;20170;-72
2022/11/01 05:43:04;;;;;;;5.13;1.45;;;;;;;;;;5047689;28;20210;-73
2022/11/01 05:45:30;;;;;;;5.85;1.50;;;;;;;;;;5022995;28;20175;-73
2022/11/01 05:48:00;;;;;;;8.52;1.20;;;;;;;;;;5031459;28;20623;-72
2022/11/01 05:50:25;;;;;;;5.35;1.58;;;;;;;;;;5026623;28;20376;-70
2022/11/01 05:52:50;;;;;;;5.32;1.13;;;;;;;;;;5030044;28;20232;-72
2022/11/01 05:55:15;;;;;;;5.75;0.88;;;;;;;;;;5030267;28;20182;-73
2022/11/01 05:57:40;;;;;;;4.80;1.65;;;;;;;;;;5028709;28;20214;-72
2022/11/01 06:00:06;;;;;;;2.67;0.93;;;;;;;;;;5032004;28;20201;-70
2022/11/01 06:02:31;;;;;;;8.23;1.00;;;;;;;;;;5028493;28;20288;-72
2022/11/01 06:04:57;;;;;;;7.65;1.48;;;;;;;;;;5029074;28;20185;-72
2022/11/01 06:07:24;;;;;;;3.90;1.58;;;;;;;;;;5024124;28;20644;-72
2022/11/01 06:09:49;;;;;;;3.78;1.10;;;;;;;;;;5024104;28;20190;-72
2022/11/01 06:12:14;;;;;;;2.13;0.75;;;;;;;;;;5024728;28;20189;-72
2022/11/01 06:14:39;;;;;;;3.70;1.00;;;;;;;;;;5029030;28;20197;-72
2022/11/01 06:17:04;;;;;;;9.93;2.70;;;;;;;;;;5026088;28;20245;-72
2022/11/01 06:19:30;;;;;;;7.15;1.55;;;;;;;;;;5025817;28;20255;-72
2022/11/01 06:21:55;;;;;;;6.28;1.80;;;;;;;;;;5033365;28;20210;-72
2022/11/01 06:24:20;;;;;;;9.95;1.98;;;;;;;;;;5028338;28;20253;-72
2022/11/01 06:26:45;;;;;;;5.05;1.40;;;;;;;;;;5020682;28;20171;-72
2022/11/01 06:29:10;;;;;;;8.77;2.28;;;;;;;;;;5038215;28;20217;-73
2022/11/01 06:31:35;;;;;;;10.50;1.85;;;;;;;;;;5021239;28;20618;-73
2022/11/01 06:34:01;;;;;;;10.07;1.60;;;;;;;;;;5022605;28;20236;-73
2022/11/01 06:36:26;;;;;;;8.38;1.20;;;;;;;;;;5022057;28;20185;-73
2022/11/01 06:38:51;;;;;;;8.00;1.83;;;;;;;;;;5024069;28;20560;-72
2022/11/01 06:41:16;;;;;;;5.93;1.30;;;;;;;;;;5025666;28;20675;-72
2022/11/01 06:43:41;;;;;;;7.28;1.17;;;;;;;;;;5018671;28;20256;-72
2022/11/01 06:46:07;;;;;;;7.40;2.03;;;;;;;;;;5025726;28;20247;-72
2022/11/01 06:48:32;;;;;;;8.80;1.33;;;;;;;;;;5026019;28;20207;-70
2022/11/01 06:50:57;;;;;;;4.85;1.38;;;;;;;;;;5025282;28;20531;-72
2022/11/01 06:53:23;;;;;;;7.57;2.03;;;;;;;;;;5028667;28;20759;-73
2022/11/01 06:55:48;;;;;;;14.70;2.92;;;;;;;;;;5024439;28;20181;-74
2022/11/01 06:58:13;;;;;;;7.40;1.40;;;;;;;;;;5031282;28;20667;-73
2022/11/01 07:00:38;;;;;;;7.50;1.50;;;;;;;;;;5017995;28;23672;-72
2022/11/01 07:03:05;;;;;;;8.02;2.22;;;;;;;;;;5023375;28;20226;-72
2022/11/01 07:05:34;;;;;;;6.95;1.88;;;;;;;;;;5029413;28;20261;-70
2022/11/01 07:07:59;;;;;;;7.93;2.47;;;;;;;;;;5029728;28;20244;-73
2022/11/01 07:10:25;;;;;;;4.93;1.17;;;;;;;;;;5029854;28;20194;-72
2022/11/01 07:12:50;;;;;;;7.75;3.25;;;;;;;;;;5023153;28;20178;-72
2022/11/01 07:15:15;;;;;;;12.93;2.22;;;;;;;;;;5046518;28;20189;-72
2022/11/01 07:17:40;;;;;;;10.18;1.35;;;;;;;;;;5025833;28;20674;-72
2022/11/01 07:20:06;;;;;;;19.25;2.72;;;;;;;;;;5022376;28;20249;-72
2022/11/01 07:22:31;;;;;;;8.13;1.70;;;;;;;;;;5028267;28;20206;-72
2022/11/01 07:24:56;;;;;;;7.93;1.42;;;;;;;;;;5029057;28;20216;-72
2022/11/01 07:27:22;;;;;;;6.90;1.40;;;;;;;;;;5025942;28;20194;-72
2022/11/01 07:29:47;;;;;;;9.77;1.85;;;;;;;;;;5023032;28;20252;-72
2022/11/01 07:32:12;;;;;;;5.82;1.38;;;;;;;;;;5037765;28;20232;-72
2022/11/01 07:34:37;;;;;;;8.38;1.80;;;;;;;;;;5021871;28;20571;-72
2022/11/01 07:37:02;;;;;;;8.30;1.63;;;;;;;;;;5024031;28;20178;-72
2022/11/01 07:39:28;;;;;;;8.70;1.95;;;;;;;;;;5023830;28;20206;-72
2022/11/01 07:41:53;;;;;;;7.72;1.70;;;;;;;;;;5019242;28;20195;-72
2022/11/01 07:44:18;;;;;;;8.65;1.40;;;;;;;;;;5022114;28;20626;-72
2022/11/01 07:46:43;;;;;;;7.90;1.33;;;;;;;;;;5026167;28;20163;-72
2022/11/01 07:49:09;;;;;;;12.93;2.10;;;;;;;;;;5028670;28;20193;-72
2022/11/01 07:51:34;;;;;;;12.90;1.95;;;;;;;;;;5025808;28;20694;-72
2022/11/01 07:53:59;;;;;;;9.50;1.67;;;;;;;;;;5034343;28;20273;-72
2022/11/01 07:56:24;;;;;;;7.05;1.52;;;;;;;;;;5027022;28;20181;-72
2022/11/01 07:58:49;;;;;;;9.48;2.15;;;;;;;;;;5021826;28;20630;-72
2022/11/01 08:01:15;;;;;;;14.98;1.52;;;;;;;;;;5016513;28;20179;-72
2022/11/01 08:03:40;;;;;;;8.90;2.17;;;;;;;;;;5022147;28;20603;-72
2022/11/01 08:06:05;;;;;;;5.38;1.70;;;;;;;;;;5022437;28;20174;-72
2022/11/01 08:08:30;;;;;;;7.82;1.70;;;;;;;;;;5022461;28;20651;-72
2022/11/01 08:10:57;;;;;;;9.52;2.22;;;;;;;;;;5030909;28;20520;-71
2022/11/01 08:13:23;;;;;;;6.25;1.73;;;;;;;;;;5027210;28;20179;-72
2022/11/01 08:15:49;;;;;;;8.05;1.55;;;;;;;;;;5032933;28;20223;-72
2022/11/01 08:18:15;;;;;;;9.98;2.08;;;;;;;;;;5030528;28;20269;-72
2022/11/01 08:20:40;;;;;;;11.57;1.80;;;;;;;;;;5022264;28;20181;-70
2022/11/01 08:23:06;;;;;;;6.68;2.05;;;;;;;;;;5028926;28;20199;-72
2022/11/01 08:25:31;;;;;;;11.60;3.60;;;;;;;;;;5027418;28;20308;-69
2022/11/01 08:28:07;;;;;;;7.70;1.02;;;;;;;;;;5028607;28;20175;-72
2022/11/01 08:30:33;;;;;;;9.52;2.15;;;;;;;;;;5029037;28;20248;-72
2022/11/01 08:32:59;;;;;;;13.30;1.80;;;;;;;;;;5028904;28;20214;-72
2022/11/01 08:35:24;;;;;;;7.85;2.13;;;;;;;;;;5020848;28;20733;-72
2022/11/01 08:37:50;;;;;;;8.27;1.35;;;;;;;;;;5034145;28;20221;-72
2022/11/01 08:40:15;;;;;;;5.28;1.20;;;;;;;;;;5031904;28;20687;-72
2022/11/01 08:42:40;;;;;;;6.05;1.35;;;;;;;;;;5027257;28;20212;-72
2022/11/01 08:45:06;;;;;;;4.13;1.67;;;;;;;;;;5028967;28;20173;-72
2022/11/01 08:47:31;;;;;;;11.90;1.85;;;;;;;;;;5034545;28;20174;-72
2022/11/01 08:49:56;;;;;;;6.97;1.45;;;;;;;;;;5031091;28;20683;-72
2022/11/01 08:52:21;;;;;;;5.65;1.30;;;;;;;;;;5028330;28;20265;-72
2022/11/01 08:54:47;;;;;;;10.93;2.85;;;;;;;;;;5027189;28;20182;-71
2022/11/01 08:57:14;;;;;;;7.70;1.75;;;;;;;;;;5030913;28;20554;-72
2022/11/01 08:59:39;;;;;;;6.78;2.17;;;;;;;;;;5021913;28;20206;-72
2022/11/01 09:02:04;;;;;;;6.32;1.45;;;;;;;;;;5028598;28;20636;-72
2022/11/01 09:04:30;;;;;;;11.02;1.48;;;;;;;;;;5019355;28;20179;-72
2022/11/01 09:06:55;;;;;;;10.60;2.38;;;;;;;;;;5027744;28;20209;-72
2022/11/01 09:09:20;;;;;;;13.68;3.28;;;;;;;;;;5042131;28;20277;-72
2022/11/01 09:11:45;;;;;;;8.93;1.75;;;;;;;;;;5021613;28;20174;-72
2022/11/01 09:14:10;;;;;;;19.13;3.53;;;;;;;;;;5026730;28;20549;-70
2022/11/01 09:16:35;;;;;;;7.53;1.48;;;;;;;;;;5029521;28;20218;-72
2022/11/01 09:19:02;;;;;;;5.68;1.52;;;;;;;;;;5026917;28;20240;-72
2022/11/01 09:21:28;;;;;;;9.88;2.20;;;;;;;;;;5022469;28;20185;-72
2022/11/01 09:23:53;;;;;;;10.18;1.45;;;;;;;;;;5021897;28;20735;-72
2022/11/01 09:26:19;;;;;;;11.90;2.53;;;;;;;;;;5021841;28;20309;-69
2022/11/01 09:28:44;;;;;;;8.00;1.40;;;;;;;;;;5029397;28;20559;-72
2022/11/01 09:31:11;;;;;;;8.80;1.43;;;;;;;;;;5018691;28;20270;-72
2022/11/01 09:33:36;;;;;;;5.63;1.60;;;;;;;;;;5025877;28;20416;-72
2022/11/01 09:36:01;;;;;;;9.80;1.70;;;;;;;;;;5023329;28;20520;-72
2022/11/01 09:38:26;;;;;;;8.20;1.63;;;;;;;;;;5026529;28;20617;-73
2022/11/01 09:41:12;;;;;;;6.40;1.30;;;;;;;;;;5031717;28;20171;-72
2022/11/01 09:43:39;;;;;;;5.60;1.65;;;;;;;;;;5026607;28;20195;-72
2022/11/01 09:46:05;;;;;;;6.85;1.48;;;;;;;;;;5033521;28;20721;-72
2022/11/01 09:48:31;;;;;;;6.32;1.65;;;;;;;;;;5029872;28;20178;-72
2022/11/01 09:50:58;;;;;;;7.88;1.58;;;;;;;;;;5029549;28;20402;-72
2022/11/01 09:53:24;;;;;;;10.85;2.45;;;;;;;;;;5023054;28;20233;-71
2022/11/01 09:55:53;;;;;;;11.02;1.88;;;;;;;;;;5026353;28;20182;-71
2022/11/01 09:58:19;;;;;;;6.65;1.92;;;;;;;;;;5038541;28;20190;-72
2022/11/01 10:00:50;;;;;;;15.43;3.10;;;;;;;;;;5024875;28;20179;-71
2022/11/01 10:03:16;;;;;;;11.45;2.50;;;;;;;;;;5027684;28;20476;-72
2022/11/01 10:05:57;;;;;;;6.88;1.85;;;;;;;;;;5029473;28;20644;-71
2022/11/01 10:08:47;;;;;;;11.25;1.63;;;;;;;;;;5030951;28;20244;-71
2022/11/01 10:11:22;;;;;;;9.50;1.80;;;;;;;;;;5023890;28;20186;-72
2022/11/01 10:13:47;;;;;;;8.07;1.67;;;;;;;;;;5021638;28;20695;-72
2022/11/01 10:16:40;;;;;;;5.83;1.30;;;;;;;;;;5030238;28;20263;-72
2022/11/01 10:19:10;;;;;;;5.95;1.85;;;;;;;;;;5022210;28;20488;-71
2022/11/01 10:21:49;;;;;;;7.53;1.52;;;;;;;;;;5028125;28;20202;-72
2022/11/01 10:24:17;;;;;;;4.40;1.13;;;;;;;;;;5023674;28;20188;-72
2022/11/01 10:26:44;;;;;;;8.52;1.55;;;;;;;;;;5024306;28;20187;-72
2022/11/01 10:29:12;;;;;;;10.73;1.95;;;;;;;;;;5019397;28;20198;-71
2022/11/01 10:31:40;;;;;;;5.22;1.92;;;;;;;;;;5029606;28;20684;-72
2022/11/01 10:34:12;;;;;;;11.88;2.00;;;;;;;;;;5023951;28;20186;-71
2022/11/01 10:36:38;;;;;;;4.72;1.40;;;;;;;;;;5041024;28;20294;-72
2022/11/01 10:39:07;;;;;;;6.20;1.83;;;;;;;;;;5025436;28;20276;-72
2022/11/01 10:41:47;;;;;;;13.38;1.73;;;;;;;;;;5021641;28;20233;-72
2022/11/01 10:44:33;;;;;;;7.47;1.60;;;;;;;;;;5023276;28;20203;-71
2022/11/01 10:46:59;;;;;;;10.52;1.52;;;;;;;;;;5024584;28;20179;-71
2022/11/01 10:49:30;;;;;;;7.63;1.98;;;;;;;;;;5026650;28;20198;-72
2022/11/01 10:51:57;;;;;;;9.60;1.58;;;;;;;;;;5031273;28;20264;-72
2022/11/01 10:54:24;;;;;;;10.40;1.33;;;;;;;;;;5021380;28;20659;-72
2022/11/01 10:56:51;;;;;;;9.85;1.40;;;;;;;;;;5024967;28;20252;-72
2022/11/01 10:59:28;;;;;;;6.88;1.95;;;;;;;;;;5029746;28;20202;-72
2022/11/01 11:01:54;;;;;;;9.15;1.95;;;;;;;;;;5024523;28;20289;-72
2022/11/01 11:04:20;;;;;;;8.52;1.75;;;;;;;;;;5025920;28;20722;-72
2022/11/01 11:06:46;;;;;;;9.85;2.05;;;;;;;;;;5026267;28;20216;-72
2022/11/01 11:09:23;;;;;;;11.85;2.42;;;;;;;;;;5023659;28;20226;-72
2022/11/01 11:11:49;;;;;;;6.60;1.40;;;;;;;;;;5022826;28;20233;-72
2022/11/01 11:14:14;;;;;;;8.55;1.65;;;;;;;;;;5036642;28;20249;-72
2022/11/01 11:16:43;;;;;;;12.52;3.15;;;;;;;;;;5022326;28;20266;-72
2022/11/01 11:19:14;;;;;;;8.63;1.35;;;;;;;;;;5029342;28;20285;-72
2022/11/01 11:21:41;;;;;;;4.68;1.20;;;;;;;;;;5030354;28;20197;-72
2022/11/01 11:24:15;;;;;;;9.57;1.73;;;;;;;;;;5023700;28;20575;-72
2022/11/01 11:26:41;;;;;;;5.80;1.65;;;;;;;;;;5025896;28;20176;-72
2022/11/01 11:29:06;;;;;;;6.78;1.92;;;;;;;;;;5019053;28;20590;-72
2022/11/01 11:31:34;;;;;;;12.68;1.88;;;;;;;;;;5028852;28;20178;-72
2022/11/01 11:34:12;;;;;;;7.90;1.63;;;;;;;;;;5019170;28;20268;-72
2022/11/01 11:36:40;;;;;;;4.75;1.40;;;;;;;;;;5022067;28;20686;-72
2022/11/01 11:39:21;;;;;;;6.82;1.15;;;;;;;;;;5027705;28;20296;-72
2022/11/01 11:41:47;;;;;;;7.20;2.55;;;;;;;;;;5029483;28;20209;-72
2022/11/01 11:44:32;;;;;;;10.27;1.50;;;;;;;;;;5019840;28;20183;-72
2022/11/01 11:46:57;;;;;;;7.50;1.38;;;;;;;;;;5013124;28;20436;-72
2022/11/01 11:49:26;;;;;;;6.25;1.40;;;;;;;;;;5025408;28;20190;-72
2022/11/01 11:51:52;;;;;;;3.53;1.25;;;;;;;;;;5024095;28;20174;-72
2022/11/01 11:54:33;;;;;;;7.45;1.80;;;;;;;;;;5023371;28;20190;-72
2022/11/01 11:57:25;;;;;;;10.63;1.38;;;;;;;;;;5025343;28;20265;-72
2022/11/01 11:59:55;;;;;;;11.05;1.50;;;;;;;;;;5019613;28;20202;-72
2022/11/01 12:02:29;;;;;;;4.88;1.15;;;;;;;;;;5027948;28;20543;-72
2022/11/01 12:04:56;;;;;;;6.50;1.60;;;;;;;;;;5030906;28;20177;-71
2022/11/01 12:07:23;;;;;;;4.43;0.75;;;;;;;;;;5028293;28;20261;-71
2022/11/01 12:09:48;;;;;;;3.97;0.95;;;;;;;;;;5027446;28;20753;-71
2022/11/01 12:12:15;;;;;;;5.63;1.98;;;;;;;;;;5030448;28;20183;-71
2022/11/01 12:14:41;;;;;;;8.43;1.38;;;;;;;;;;5022621;28;20182;-71
2022/11/01 12:17:25;;;;;;;7.55;1.33;;;;;;;;;;5036240;28;20179;-71
2022/11/01 12:20:12;;;;;;;5.03;1.88;;;;;;;;;;5022771;28;20194;-71
2022/11/01 12:22:40;;;;;;;6.43;1.23;;;;;;;;;;5022118;28;20210;-71
2022/11/01 12:25:07;;;;;;;5.60;1.27;;;;;;;;;;5022051;28;20179;-71
2022/11/01 12:27:34;;;;;;;3.85;1.15;;;;;;;;;;5026825;28;20184;-71
2022/11/01 12:30:07;;;;;;;5.90;1.17;;;;;;;;;;5017233;28;20730;-72
2022/11/01 12:32:47;;;;;;;4.28;1.60;;;;;;;;;;5026241;28;20182;-71
2022/11/01 12:35:28;;;;;;;4.13;0.82;;;;;;;;;;5034010;28;20226;-71
2022/11/01 12:38:01;;;;;;;4.88;0.90;;;;;;;;;;5018255;28;20171;-71
2022/11/01 12:40:32;;;;;;;9.88;1.00;;;;;;;;;;5016901;28;20199;-71
2022/11/01 12:43:00;;;;;;;7.07;1.20;;;;;;;;;;5025672;28;20194;-71
2022/11/01 12:45:33;;;;;;;8.07;1.15;;;;;;;;;;5025703;28;20217;-72
2022/11/01 12:48:01;;;;;;;3.78;0.88;;;;;;;;;;5024003;28;20174;-71
2022/11/01 12:50:39;;;;;;;4.55;1.05;;;;;;;;;;5021979;28;20243;-71
2022/11/01 12:53:09;;;;;;;5.60;1.15;;;;;;;;;;5021864;28;20189;-71
2022/11/01 12:55:35;;;;;;;5.13;1.15;;;;;;;;;;5023725;28;20183;-72
2022/11/01 12:58:02;;;;;;;4.78;1.17;;;;;;;;;;5031215;28;20175;-71
2022/11/01 13:00:31;;;;;;;4.78;1.52;;;;;;;;;;5023753;28;20203;-71
2022/11/01 13:02:56;;;;;;;6.38;1.08;;;;;;;;;;5023687;28;20232;-71
2022/11/01 13:05:33;;;;;;;4.43;0.70;;;;;;;;;;5030737;28;20606;-71
2022/11/01 13:07:58;;;;;;;3.42;0.98;;;;;;;;;;5019581;28;20777;-71
2022/11/01 13:10:26;;;;;;;6.10;1.30;;;;;;;;;;5031085;28;20194;-71
2022/11/01 13:12:51;;;;;;;2.90;0.80;;;;;;;;;;5028425;28;20267;-71
2022/11/01 13:15:35;;;;;;;6.70;1.10;;;;;;;;;;5040924;28;20182;-72
2022/11/01 13:18:08;;;;;;;3.97;1.05;;;;;;;;;;5015196;28;20928;-71
2022/11/01 13:20:55;;;;;;;3.15;0.90;;;;;;;;;;5032071;28;20194;-71
2022/11/01 13:23:27;;;;;;;5.05;1.10;;;;;;;;;;5036534;28;20214;-71
2022/11/01 13:26:00;;;;;;;6.65;1.10;;;;;;;;;;5028297;28;20180;-71
2022/11/01 13:28:43;;;;;;;5.75;1.23;;;;;;;;;;5021479;28;20587;-71
2022/11/01 13:31:12;;;;;;;6.45;1.75;;;;;;;;;;5023734;28;20200;-71
2022/11/01 13:33:40;;;;;;;7.63;1.40;;;;;;;;;;5022874;28;20273;-71
2022/11/01 13:36:13;;;;;;;5.05;1.00;;;;;;;;;;5037650;28;20197;-71
2022/11/01 13:38:52;;;;;;;6.63;1.08;;;;;;;;;;5024172;28;20198;-72
2022/11/01 13:41:33;;;;;;;3.75;1.10;;;;;;;;;;5022539;28;20550;-71
2022/11/01 13:44:01;;;;;;;13.52;2.78;;;;;;;;;;5020203;28;20310;-72
2022/11/01 13:46:39;;;;;;;5.97;1.02;;;;;;;;;;5025021;28;20252;-71
2022/11/01 13:49:07;;;;;;;5.38;0.90;;;;;;;;;;5024046;28;20709;-71
2022/11/01 13:51:38;;;;;;;6.22;1.17;;;;;;;;;;5030746;28;20291;-72
2022/11/01 13:54:08;;;;;;;7.10;1.45;;;;;;;;;;5024325;28;20735;-72
2022/11/01 13:56:35;;;;;;;3.63;0.75;;;;;;;;;;5030066;28;20177;-71
2022/11/01 13:59:02;;;;;;;3.58;0.93;;;;;;;;;;5031773;28;20269;-71
2022/11/01 14:01:36;;;;;;;9.50;1.23;;;;;;;;;;5025211;28;20174;-71
2022/11/01 14:04:27;;;;;;;5.07;0.82;;;;;;;;;;5035218;28;20262;-71
2022/11/01 14:07:11;;;;;;;2.95;1.05;;;;;;;;;;5020735;28;20193;-72
2022/11/01 14:09:49;;;;;;;4.65;0.90;;;;;;;;;;5048044;28;20198;-71
2022/11/01 14:12:31;;;;;;;5.90;0.95;;;;;;;;;;5019614;28;20214;-72
2022/11/01 14:15:18;;;;;;;5.78;1.33;;;;;;;;;;5025984;28;20179;-71
2022/11/01 14:17:55;;;;;;;4.32;0.88;;;;;;;;;;5020666;28;20179;-71
2022/11/01 14:20:27;;;;;;;8.13;1.30;;;;;;;;;;5023626;28;20229;-71
2022/11/01 14:22:52;;;;;;;4.78;1.15;;;;;;;;;;5024352;28;20741;-72
2022/11/01 14:25:17;;;;;;;2.35;0.75;;;;;;;;;;5029217;28;20174;-71
2022/11/01 14:27:44;;;;;;;6.50;1.30;;;;;;;;;;5039287;28;20698;-72
2022/11/01 14:30:17;;;;;;;9.38;1.45;;;;;;;;;;5015528;28;20491;-72
2022/11/01 14:32:43;;;;;;;7.05;1.05;;;;;;;;;;5028727;28;20190;-71
2022/11/01 14:35:11;;;;;;;5.75;1.35;;;;;;;;;;5023101;28;20198;-71
2022/11/01 14:37:41;;;;;;;5.03;0.77;;;;;;;;;;5018943;28;20286;-71
2022/11/01 14:40:18;;;;;;;4.38;0.98;;;;;;;;;;5027127;28;20257;-71
2022/11/01 14:42:45;;;;;;;6.28;0.98;;;;;;;;;;5017132;28;20684;-71
2022/11/01 14:45:29;;;;;;;5.50;1.00;;;;;;;;;;5020939;28;20561;-71
2022/11/01 14:47:59;;;;;;;6.15;1.10;;;;;;;;;;5019529;28;20171;-71
2022/11/01 14:50:31;;;;;;;5.68;0.90;;;;;;;;;;5026288;28;20247;-71
2022/11/01 14:53:03;;;;;;;4.75;1.33;;;;;;;;;;5027323;28;20182;-71